sensor_id;sensor_type;location;lat;lon;timestamp;temperature;humidity
8172;DHT22;4127;47.908;10.850;2022-10-16T02:42:01;11.90;99.90
8172;DHT22;4127;47.908;10.850;2022-10-16T02:44:28;11.90;99.90
8172;DHT22;4127;47.908;10.850;2022-10-16T02:46:55;11.90;99.90
8172;DHT22;4127;47.908;10.850;2022-10-16T02:49:21;12.00;99.90
8172;DHT22;4127;47.908;10.850;2022-10-16T02:51:48;12.00;99.90
8172;DHT22;4127;47.908;10.850;2022-10-16T02:54:15;12.00;99.90
8172;DHT22;4127;47.908;10.850;2022-10-16T02:56:41;12.10;99.90
8172;DHT22;4127;47.908;10.850;2022-10-16T02:59:08;12.10;99.90
8172;DHT22;4127;47.908;10.850;2022-10-16T03:01:35;12.30;99.90
8172;DHT22;4127;47.908;10.850;2022-10-16T03:04:02;12.20;99.90
8172;DHT22;4127;47.908;10.850;2022-10-16T03:06:29;12.30;99.90
8172;DHT22;4127;47.908;10.850;2022-10-16T03:08:56;12.40;99.90
8172;DHT22;4127;47.908;10.850;2022-10-16T03:11:22;12.50;99.90
8172;DHT22;4127;47.908;10.850;2022-10-16T03:13:49;12.50;99.90
8172;DHT22;4127;47.908;10.850;2022-10-16T03:16:16;12.60;99.90
8172;DHT22;4127;47.908;10.850;2022-10-16T03:18:42;12.60;99.90
8172;DHT22;4127;47.908;10.850;2022-10-16T03:21:09;12.50;99.90
8172;DHT22;4127;47.908;10.850;2022-10-16T03:23:36;12.50;99.90
8172;DHT22;4127;47.908;10.850;2022-10-16T03:26:02;12.60;99.90
8172;DHT22;4127;47.908;10.850;2022-10-16T03:28:29;12.50;99.90
8172;DHT22;4127;47.908;10.850;2022-10-16T03:30:56;12.50;99.90
8172;DHT22;4127;47.908;10.850;2022-10-16T03:33:23;12.40;99.90
8172;DHT22;4127;47.908;10.850;2022-10-16T03:35:54;12.40;99.90
8172;DHT22;4127;47.908;10.850;2022-10-16T03:38:21;12.40;99.90
8172;DHT22;4127;47.908;10.850;2022-10-16T03:40:48;12.30;99.90
8172;DHT22;4127;47.908;10.850;2022-10-16T03:43:15;12.40;99.90
8172;DHT22;4127;47.908;10.850;2022-10-16T03:45:42;12.30;99.90
8172;DHT22;4127;47.908;10.850;2022-10-16T03:48:08;12.30;99.90
8172;DHT22;4127;47.908;10.850;2022-10-16T03:50:35;12.20;99.90
8172;DHT22;4127;47.908;10.850;2022-10-16T03:53:02;12.10;99.90
8172;DHT22;4127;47.908;10.850;2022-10-16T03:55:30;12.20;99.90
8172;DHT22;4127;47.908;10.850;2022-10-16T03:57:56;12.30;99.90
8172;DHT22;4127;47.908;10.850;2022-10-16T04:00:23;12.40;99.90
8172;DHT22;4127;47.908;10.850;2022-10-16T04:02:50;12.40;99.90
8172;DHT22;4127;47.908;10.850;2022-10-16T04:05:16;12.40;99.90
8172;DHT22;4127;47.908;10.850;2022-10-16T04:07:43;12.50;99.90
8172;DHT22;4127;47.908;10.850;2022-10-16T04:10:10;12.40;99.90
8172;DHT22;4127;47.908;10.850;2022-10-16T04:12:36;12.40;99.90
8172;DHT22;4127;47.908;10.850;2022-10-16T04:15:03;12.40;99.90
8172;DHT22;4127;47.908;10.850;2022-10-16T04:17:30;12.30;99.90
8172;DHT22;4127;47.908;10.850;2022-10-16T04:19:57;12.20;99.90
8172;DHT22;4127;47.908;10.850;2022-10-16T04:22:23;12.20;99.90
8172;DHT22;4127;47.908;10.850;2022-10-16T04:24:50;12.10;99.90
8172;DHT22;4127;47.908;10.850;2022-10-16T04:27:17;12.20;99.90
8172;DHT22;4127;47.908;10.850;2022-10-16T04:29:44;12.30;99.90
8172;DHT22;4127;47.908;10.850;2022-10-16T04:32:10;12.30;99.90
8172;DHT22;4127;47.908;10.850;2022-10-16T04:34:39;12.40;99.90
8172;DHT22;4127;47.908;10.850;2022-10-16T04:37:06;12.30;99.90
8172;DHT22;4127;47.908;10.850;2022-10-16T04:39:32;12.30;99.90
8172;DHT22;4127;47.908;10.850;2022-10-16T04:41:59;12.30;99.90
8172;DHT22;4127;47.908;10.850;2022-10-16T04:44:26;12.30;99.90
8172;DHT22;4127;47.908;10.850;2022-10-16T04:46:53;12.30;99.90
8172;DHT22;4127;47.908;10.850;2022-10-16T04:49:19;12.30;99.90
8172;DHT22;4127;47.908;10.850;2022-10-16T04:51:46;12.40;99.90
8172;DHT22;4127;47.908;10.850;2022-10-16T04:54:13;12.30;99.90
8172;DHT22;4127;47.908;10.850;2022-10-16T04:56:40;12.30;99.90
8172;DHT22;4127;47.908;10.850;2022-10-16T04:59:16;12.30;99.90
8172;DHT22;4127;47.908;10.850;2022-10-16T05:01:43;12.30;99.90
8172;DHT22;4127;47.908;10.850;2022-10-16T05:04:11;12.30;99.90
8172;DHT22;4127;47.908;10.850;2022-10-16T05:06:38;12.30;99.90
8172;DHT22;4127;47.908;10.850;2022-10-16T05:09:08;12.40;99.90
8172;DHT22;4127;47.908;10.850;2022-10-16T05:11:35;12.30;99.90
8172;DHT22;4127;47.908;10.850;2022-10-16T05:14:02;12.30;99.90
8172;DHT22;4127;47.908;10.850;2022-10-16T05:16:29;12.40;99.90
8172;DHT22;4127;47.908;10.850;2022-10-16T05:18:57;12.40;99.90
8172;DHT22;4127;47.908;10.850;2022-10-16T05:21:43;12.30;99.90
8172;DHT22;4127;47.908;10.850;2022-10-16T05:24:10;12.30;99.90
8172;DHT22;4127;47.908;10.850;2022-10-16T05:26:37;12.30;99.90
8172;DHT22;4127;47.908;10.850;2022-10-16T05:29:04;12.30;99.90
8172;DHT22;4127;47.908;10.850;2022-10-16T05:31:30;12.20;99.90
8172;DHT22;4127;47.908;10.850;2022-10-16T05:34:00;12.20;99.90
8172;DHT22;4127;47.908;10.850;2022-10-16T05:36:27;12.20;99.90
8172;DHT22;4127;47.908;10.850;2022-10-16T05:38:54;12.30;99.90
8172;DHT22;4127;47.908;10.850;2022-10-16T05:41:21;12.30;99.90
8172;DHT22;4127;47.908;10.850;2022-10-16T05:43:48;12.20;99.90
8172;DHT22;4127;47.908;10.850;2022-10-16T05:46:16;12.20;99.90
8172;DHT22;4127;47.908;10.850;2022-10-16T05:48:43;12.20;99.90
8172;DHT22;4127;47.908;10.850;2022-10-16T05:51:11;12.20;99.90
8172;DHT22;4127;47.908;10.850;2022-10-16T05:53:40;12.30;99.90
8172;DHT22;4127;47.908;10.850;2022-10-16T05:56:09;12.20;99.90
8172;DHT22;4127;47.908;10.850;2022-10-16T05:58:38;12.20;99.90
8172;DHT22;4127;47.908;10.850;2022-10-16T06:01:12;12.30;99.90
8172;DHT22;4127;47.908;10.850;2022-10-16T06:03:39;12.20;99.90
8172;DHT22;4127;47.908;10.850;2022-10-16T06:06:17;12.30;99.90
8172;DHT22;4127;47.908;10.850;2022-10-16T06:08:45;12.30;99.90
8172;DHT22;4127;47.908;10.850;2022-10-16T06:11:19;12.30;99.90
8172;DHT22;4127;47.908;10.850;2022-10-16T06:13:49;12.40;99.90
8172;DHT22;4127;47.908;10.850;2022-10-16T06:16:16;12.40;99.90
8172;DHT22;4127;47.908;10.850;2022-10-16T06:18:43;12.40;99.90
8172;DHT22;4127;47.908;10.850;2022-10-16T06:21:12;12.40;99.90
8172;DHT22;4127;47.908;10.850;2022-10-16T06:23:39;12.50;99.90
8172;DHT22;4127;47.908;10.850;2022-10-16T06:26:07;12.40;99.90
8172;DHT22;4127;47.908;10.850;2022-10-16T06:28:34;12.40;99.90
8172;DHT22;4127;47.908;10.850;2022-10-16T06:31:03;12.50;99.90
8172;DHT22;4127;47.908;10.850;2022-10-16T06:33:34;12.50;99.90
8172;DHT22;4127;47.908;10.850;2022-10-16T06:36:03;12.60;99.90
8172;DHT22;4127;47.908;10.850;2022-10-16T06:38:30;12.60;99.90
8172;DHT22;4127;47.908;10.850;2022-10-16T06:40:57;12.60;99.90
8172;DHT22;4127;47.908;10.850;2022-10-16T06:43:24;12.60;99.90
8172;DHT22;4127;47.908;10.850;2022-10-16T06:45:55;12.50;99.90
8172;DHT22;4127;47.908;10.850;2022-10-16T06:48:23;12.50;99.90
8172;DHT22;4127;47.908;10.850;2022-10-16T06:51:01;12.60;99.90
8172;DHT22;4127;47.908;10.850;2022-10-16T06:53:30;12.60;99.90
8172;DHT22;4127;47.908;10.850;2022-10-16T06:56:27;12.60;99.90
8172;DHT22;4127;47.908;10.850;2022-10-16T06:58:54;12.60;99.90
8172;DHT22;4127;47.908;10.850;2022-10-16T07:01:23;12.50;99.90
8172;DHT22;4127;47.908;10.850;2022-10-16T07:03:51;12.50;99.90
8172;DHT22;4127;47.908;10.850;2022-10-16T07:06:22;12.50;99.90
8172;DHT22;4127;47.908;10.850;2022-10-16T07:08:49;12.40;99.90
8172;DHT22;4127;47.908;10.850;2022-10-16T07:11:18;12.50;99.90
8172;DHT22;4127;47.908;10.850;2022-10-16T07:13:45;12.50;99.90
8172;DHT22;4127;47.908;10.850;2022-10-16T07:16:22;12.60;99.90
8172;DHT22;4127;47.908;10.850;2022-10-16T07:18:49;12.70;99.90
8172;DHT22;4127;47.908;10.850;2022-10-16T07:21:22;12.90;99.90
8172;DHT22;4127;47.908;10.850;2022-10-16T07:23:54;13.10;99.90
8172;DHT22;4127;47.908;10.850;2022-10-16T07:26:21;13.40;99.90
8172;DHT22;4127;47.908;10.850;2022-10-16T07:28:48;13.60;99.90
8172;DHT22;4127;47.908;10.850;2022-10-16T07:31:17;13.90;99.90
8172;DHT22;4127;47.908;10.850;2022-10-16T07:33:45;14.20;99.90
8172;DHT22;4127;47.908;10.850;2022-10-16T07:36:12;14.40;99.90
8172;DHT22;4127;47.908;10.850;2022-10-16T07:38:42;14.60;99.90
8172;DHT22;4127;47.908;10.850;2022-10-16T07:41:14;14.80;99.90
8172;DHT22;4127;47.908;10.850;2022-10-16T07:43:46;14.90;99.90
8172;DHT22;4127;47.908;10.850;2022-10-16T07:46:13;15.00;99.90
8172;DHT22;4127;47.908;10.850;2022-10-16T07:48:40;15.10;99.90
8172;DHT22;4127;47.908;10.850;2022-10-16T07:51:07;15.20;99.90
8172;DHT22;4127;47.908;10.850;2022-10-16T07:53:34;15.20;99.90
8172;DHT22;4127;47.908;10.850;2022-10-16T07:56:03;15.20;99.90
8172;DHT22;4127;47.908;10.850;2022-10-16T07:58:31;15.20;99.90
8172;DHT22;4127;47.908;10.850;2022-10-16T08:00:59;15.30;99.90
8172;DHT22;4127;47.908;10.850;2022-10-16T08:03:29;15.40;99.90
8172;DHT22;4127;47.908;10.850;2022-10-16T08:05:57;15.40;99.90
8172;DHT22;4127;47.908;10.850;2022-10-16T08:08:24;15.50;99.90
8172;DHT22;4127;47.908;10.850;2022-10-16T08:10:51;15.60;99.90
8172;DHT22;4127;47.908;10.850;2022-10-16T08:13:18;15.60;99.90
8172;DHT22;4127;47.908;10.850;2022-10-16T08:15:45;15.70;99.90
8172;DHT22;4127;47.908;10.850;2022-10-16T08:18:13;15.70;99.90
8172;DHT22;4127;47.908;10.850;2022-10-16T08:20:41;15.80;99.90
8172;DHT22;4127;47.908;10.850;2022-10-16T08:23:11;15.90;99.90
8172;DHT22;4127;47.908;10.850;2022-10-16T08:25:39;16.00;99.90
8172;DHT22;4127;47.908;10.850;2022-10-16T08:28:08;16.10;99.90
8172;DHT22;4127;47.908;10.850;2022-10-16T08:30:35;16.20;99.90
8172;DHT22;4127;47.908;10.850;2022-10-16T08:33:02;16.30;99.90
8172;DHT22;4127;47.908;10.850;2022-10-16T08:35:29;16.40;99.90
8172;DHT22;4127;47.908;10.850;2022-10-16T08:37:55;16.50;99.90
8172;DHT22;4127;47.908;10.850;2022-10-16T08:40:25;16.70;99.90
8172;DHT22;4127;47.908;10.850;2022-10-16T08:42:57;16.90;99.90
8172;DHT22;4127;47.908;10.850;2022-10-16T08:50:38;17.50;99.90
8172;DHT22;4127;47.908;10.850;2022-10-16T08:53:07;17.70;99.90
8172;DHT22;4127;47.908;10.850;2022-10-16T08:55:42;17.90;99.90
8172;DHT22;4127;47.908;10.850;2022-10-16T08:58:15;18.10;99.90
8172;DHT22;4127;47.908;10.850;2022-10-16T09:00:44;18.20;99.90
8172;DHT22;4127;47.908;10.850;2022-10-16T09:06:07;18.60;99.90
8172;DHT22;4127;47.908;10.850;2022-10-16T09:08:49;18.80;99.90
8172;DHT22;4127;47.908;10.850;2022-10-16T09:11:46;19.00;99.90
8172;DHT22;4127;47.908;10.850;2022-10-16T09:14:56;19.10;99.90
8172;DHT22;4127;47.908;10.850;2022-10-16T09:17:58;19.20;99.90
8172;DHT22;4127;47.908;10.850;2022-10-16T09:20:31;19.50;99.90
8172;DHT22;4127;47.908;10.850;2022-10-16T09:23:16;19.70;99.90
8172;DHT22;4127;47.908;10.850;2022-10-16T09:25:49;19.80;99.90
8172;DHT22;4127;47.908;10.850;2022-10-16T09:28:19;19.90;99.90
8172;DHT22;4127;47.908;10.850;2022-10-16T09:30:47;20.10;99.90
8172;DHT22;4127;47.908;10.850;2022-10-16T09:33:19;20.20;99.90
8172;DHT22;4127;47.908;10.850;2022-10-16T09:35:56;20.40;99.90
8172;DHT22;4127;47.908;10.850;2022-10-16T09:38:32;20.50;99.90
8172;DHT22;4127;47.908;10.850;2022-10-16T09:41:01;20.60;99.90
8172;DHT22;4127;47.908;10.850;2022-10-16T09:43:34;20.80;99.90
8172;DHT22;4127;47.908;10.850;2022-10-16T09:46:07;20.90;99.90
8172;DHT22;4127;47.908;10.850;2022-10-16T09:48:44;21.00;97.70
8172;DHT22;4127;47.908;10.850;2022-10-16T09:51:30;20.90;97.60
8172;DHT22;4127;47.908;10.850;2022-10-16T09:54:00;20.90;97.30
8172;DHT22;4127;47.908;10.850;2022-10-16T09:56:30;21.00;99.20
8172;DHT22;4127;47.908;10.850;2022-10-16T09:59:08;21.10;98.20
8172;DHT22;4127;47.908;10.850;2022-10-16T10:01:39;21.10;97.40
8172;DHT22;4127;47.908;10.850;2022-10-16T10:04:07;21.00;97.90
8172;DHT22;4127;47.908;10.850;2022-10-16T10:06:37;21.00;98.70
8172;DHT22;4127;47.908;10.850;2022-10-16T10:09:23;21.10;98.00
8172;DHT22;4127;47.908;10.850;2022-10-16T10:11:54;21.00;97.30
8172;DHT22;4127;47.908;10.850;2022-10-16T10:14:36;20.90;97.20
8172;DHT22;4127;47.908;10.850;2022-10-16T10:19:50;20.80;98.20
8172;DHT22;4127;47.908;10.850;2022-10-16T10:22:38;20.80;98.90
8172;DHT22;4127;47.908;10.850;2022-10-16T10:36:16;21.10;99.80
8172;DHT22;4127;47.908;10.850;2022-10-16T10:39:04;21.20;99.90
8172;DHT22;4127;47.908;10.850;2022-10-16T10:44:25;21.60;99.90
8172;DHT22;4127;47.908;10.850;2022-10-16T10:50:01;21.90;99.10
8172;DHT22;4127;47.908;10.850;2022-10-16T11:05:47;22.50;90.80
8172;DHT22;4127;47.908;10.850;2022-10-16T11:08:20;22.60;88.60
8172;DHT22;4127;47.908;10.850;2022-10-16T11:11:04;22.70;89.10
8172;DHT22;4127;47.908;10.850;2022-10-16T11:16:30;22.70;86.60
8172;DHT22;4127;47.908;10.850;2022-10-16T11:21:47;22.70;82.50
8172;DHT22;4127;47.908;10.850;2022-10-16T11:24:23;22.70;82.20
8172;DHT22;4127;47.908;10.850;2022-10-16T11:26:54;22.80;82.10
8172;DHT22;4127;47.908;10.850;2022-10-16T11:29:27;22.80;83.30
8172;DHT22;4127;47.908;10.850;2022-10-16T11:32:05;22.80;83.00
8172;DHT22;4127;47.908;10.850;2022-10-16T11:34:47;22.80;82.20
8172;DHT22;4127;47.908;10.850;2022-10-16T11:37:27;22.80;83.00
8172;DHT22;4127;47.908;10.850;2022-10-16T11:40:10;22.80;85.50
8172;DHT22;4127;47.908;10.850;2022-10-16T11:42:48;22.70;81.30
8172;DHT22;4127;47.908;10.850;2022-10-16T11:48:35;22.70;85.20
8172;DHT22;4127;47.908;10.850;2022-10-16T11:51:16;22.80;86.60
8172;DHT22;4127;47.908;10.850;2022-10-16T11:54:05;22.80;85.90
8172;DHT22;4127;47.908;10.850;2022-10-16T11:56:36;22.70;84.80
8172;DHT22;4127;47.908;10.850;2022-10-16T11:59:10;22.80;85.80
8172;DHT22;4127;47.908;10.850;2022-10-16T12:04:26;22.90;83.50
8172;DHT22;4127;47.908;10.850;2022-10-16T12:07:04;23.00;85.50
8172;DHT22;4127;47.908;10.850;2022-10-16T12:09:36;23.00;84.10
8172;DHT22;4127;47.908;10.850;2022-10-16T12:12:03;23.10;85.40
8172;DHT22;4127;47.908;10.850;2022-10-16T12:14:36;23.20;85.00
8172;DHT22;4127;47.908;10.850;2022-10-16T12:17:38;23.20;85.20
8172;DHT22;4127;47.908;10.850;2022-10-16T12:22:47;22.80;78.90
8172;DHT22;4127;47.908;10.850;2022-10-16T12:27:58;22.80;79.10
8172;DHT22;4127;47.908;10.850;2022-10-16T12:30:27;22.70;80.30
8172;DHT22;4127;47.908;10.850;2022-10-16T12:33:23;22.90;82.40
8172;DHT22;4127;47.908;10.850;2022-10-16T12:35:52;23.00;81.90
8172;DHT22;4127;47.908;10.850;2022-10-16T12:38:22;23.00;81.10
8172;DHT22;4127;47.908;10.850;2022-10-16T12:41:02;23.10;79.10
8172;DHT22;4127;47.908;10.850;2022-10-16T12:46:05;23.20;78.50
8172;DHT22;4127;47.908;10.850;2022-10-16T12:48:46;23.20;80.60
8172;DHT22;4127;47.908;10.850;2022-10-16T12:54:03;23.10;81.70
8172;DHT22;4127;47.908;10.850;2022-10-16T13:11:05;22.70;79.30
8172;DHT22;4127;47.908;10.850;2022-10-16T13:19:46;22.60;79.90
8172;DHT22;4127;47.908;10.850;2022-10-16T13:22:49;22.50;80.00
8172;DHT22;4127;47.908;10.850;2022-10-16T13:28:22;22.30;83.40
8172;DHT22;4127;47.908;10.850;2022-10-16T13:30:56;22.50;83.20
8172;DHT22;4127;47.908;10.850;2022-10-16T13:36:00;22.60;82.60
8172;DHT22;4127;47.908;10.850;2022-10-16T13:38:32;22.40;80.00
8172;DHT22;4127;47.908;10.850;2022-10-16T13:41:05;22.30;82.90
8172;DHT22;4127;47.908;10.850;2022-10-16T13:46:06;22.30;83.00
8172;DHT22;4127;47.908;10.850;2022-10-16T13:48:34;22.30;83.60
8172;DHT22;4127;47.908;10.850;2022-10-16T13:51:13;22.30;83.70
8172;DHT22;4127;47.908;10.850;2022-10-16T13:53:40;22.20;83.10
8172;DHT22;4127;47.908;10.850;2022-10-16T13:56:15;22.20;85.40
8172;DHT22;4127;47.908;10.850;2022-10-16T13:58:43;22.20;83.00
8172;DHT22;4127;47.908;10.850;2022-10-16T14:01:23;22.20;84.00
8172;DHT22;4127;47.908;10.850;2022-10-16T14:04:05;22.10;82.60
8172;DHT22;4127;47.908;10.850;2022-10-16T14:06:35;22.10;81.60
8172;DHT22;4127;47.908;10.850;2022-10-16T14:09:47;22.10;81.50
8172;DHT22;4127;47.908;10.850;2022-10-16T14:12:11;22.10;84.50
8172;DHT22;4127;47.908;10.850;2022-10-16T14:14:43;22.20;84.10
8172;DHT22;4127;47.908;10.850;2022-10-16T14:17:31;22.00;84.00
8172;DHT22;4127;47.908;10.850;2022-10-16T14:20:03;21.90;88.60
8172;DHT22;4127;47.908;10.850;2022-10-16T14:22:38;21.90;86.40
8172;DHT22;4127;47.908;10.850;2022-10-16T14:27:56;21.80;87.60
8172;DHT22;4127;47.908;10.850;2022-10-16T14:30:23;21.70;88.00
8172;DHT22;4127;47.908;10.850;2022-10-16T14:33:39;21.70;85.50
8172;DHT22;4127;47.908;10.850;2022-10-16T14:36:13;21.80;89.10
8172;DHT22;4127;47.908;10.850;2022-10-16T14:38:43;21.80;88.20
8172;DHT22;4127;47.908;10.850;2022-10-16T14:41:15;21.70;89.90
8172;DHT22;4127;47.908;10.850;2022-10-16T14:43:42;21.70;90.20
8172;DHT22;4127;47.908;10.850;2022-10-16T14:46:18;21.60;90.10
8172;DHT22;4127;47.908;10.850;2022-10-16T14:48:50;21.60;90.60
8172;DHT22;4127;47.908;10.850;2022-10-16T14:51:18;21.70;90.30
8172;DHT22;4127;47.908;10.850;2022-10-16T14:53:45;21.70;90.00
8172;DHT22;4127;47.908;10.850;2022-10-16T14:56:24;21.60;89.20
8172;DHT22;4127;47.908;10.850;2022-10-16T14:58:52;21.40;89.90
8172;DHT22;4127;47.908;10.850;2022-10-16T15:01:19;21.30;86.60
8172;DHT22;4127;47.908;10.850;2022-10-16T15:03:46;21.30;87.70
8172;DHT22;4127;47.908;10.850;2022-10-16T15:06:16;21.30;88.30
8172;DHT22;4127;47.908;10.850;2022-10-16T15:08:43;21.30;88.00
8172;DHT22;4127;47.908;10.850;2022-10-16T15:11:15;21.40;90.40
8172;DHT22;4127;47.908;10.850;2022-10-16T15:13:42;21.40;93.30
8172;DHT22;4127;47.908;10.850;2022-10-16T15:16:14;21.50;94.10
8172;DHT22;4127;47.908;10.850;2022-10-16T15:18:42;21.50;94.50
8172;DHT22;4127;47.908;10.850;2022-10-16T15:21:29;21.60;95.30
8172;DHT22;4127;47.908;10.850;2022-10-16T15:23:57;21.60;95.70
8172;DHT22;4127;47.908;10.850;2022-10-16T15:26:26;21.60;95.60
8172;DHT22;4127;47.908;10.850;2022-10-16T15:28:53;21.60;95.70
8172;DHT22;4127;47.908;10.850;2022-10-16T15:31:20;21.50;96.30
8172;DHT22;4127;47.908;10.850;2022-10-16T15:33:50;21.30;97.20
8172;DHT22;4127;47.908;10.850;2022-10-16T15:36:27;21.10;97.90
8172;DHT22;4127;47.908;10.850;2022-10-16T15:38:54;20.80;99.90
8172;DHT22;4127;47.908;10.850;2022-10-16T15:41:22;20.70;99.90
8172;DHT22;4127;47.908;10.850;2022-10-16T15:43:49;20.60;99.90
8172;DHT22;4127;47.908;10.850;2022-10-16T15:46:20;20.50;99.90
8172;DHT22;4127;47.908;10.850;2022-10-16T15:48:51;20.40;99.90
8172;DHT22;4127;47.908;10.850;2022-10-16T15:51:22;20.20;99.90
8172;DHT22;4127;47.908;10.850;2022-10-16T15:53:48;20.00;99.90
8172;DHT22;4127;47.908;10.850;2022-10-16T15:56:17;19.70;99.90
8172;DHT22;4127;47.908;10.850;2022-10-16T15:58:44;19.50;99.90
8172;DHT22;4127;47.908;10.850;2022-10-16T16:01:11;19.40;99.90
8172;DHT22;4127;47.908;10.850;2022-10-16T16:03:38;19.30;99.90
8172;DHT22;4127;47.908;10.850;2022-10-16T16:06:11;19.30;99.90
8172;DHT22;4127;47.908;10.850;2022-10-16T16:08:39;19.00;99.90
8172;DHT22;4127;47.908;10.850;2022-10-16T16:11:09;18.80;99.90
8172;DHT22;4127;47.908;10.850;2022-10-16T16:13:36;18.70;99.90
8172;DHT22;4127;47.908;10.850;2022-10-16T16:16:07;18.50;99.90
8172;DHT22;4127;47.908;10.850;2022-10-16T16:18:34;18.30;99.90
8172;DHT22;4127;47.908;10.850;2022-10-16T16:21:02;18.20;99.90
8172;DHT22;4127;47.908;10.850;2022-10-16T16:23:28;18.20;99.90
8172;DHT22;4127;47.908;10.850;2022-10-16T16:26:11;18.20;99.90
8172;DHT22;4127;47.908;10.850;2022-10-16T16:28:40;18.10;99.90
8172;DHT22;4127;47.908;10.850;2022-10-16T16:31:08;17.90;99.90
8172;DHT22;4127;47.908;10.850;2022-10-16T16:33:35;17.80;99.90
8172;DHT22;4127;47.908;10.850;2022-10-16T16:36:04;17.70;99.90
8172;DHT22;4127;47.908;10.850;2022-10-16T16:38:38;17.60;99.90
8172;DHT22;4127;47.908;10.850;2022-10-16T16:41:34;17.50;99.90
8172;DHT22;4127;47.908;10.850;2022-10-16T16:44:04;17.10;99.90
8172;DHT22;4127;47.908;10.850;2022-10-16T16:46:32;17.00;99.90
8172;DHT22;4127;47.908;10.850;2022-10-16T16:49:01;16.80;99.90
8172;DHT22;4127;47.908;10.850;2022-10-16T16:51:28;16.70;99.90
8172;DHT22;4127;47.908;10.850;2022-10-16T16:53:55;16.60;99.90
8172;DHT22;4127;47.908;10.850;2022-10-16T16:56:23;16.50;99.90
8172;DHT22;4127;47.908;10.850;2022-10-16T16:58:52;16.40;99.90
8172;DHT22;4127;47.908;10.850;2022-10-16T17:01:21;16.40;99.90
8172;DHT22;4127;47.908;10.850;2022-10-16T17:03:50;16.40;99.90
8172;DHT22;4127;47.908;10.850;2022-10-16T17:06:24;16.30;99.90
8172;DHT22;4127;47.908;10.850;2022-10-16T17:08:51;16.20;99.90
8172;DHT22;4127;47.908;10.850;2022-10-16T17:11:21;16.10;99.90
8172;DHT22;4127;47.908;10.850;2022-10-16T17:13:48;16.00;99.90
8172;DHT22;4127;47.908;10.850;2022-10-16T17:16:23;15.90;99.90
8172;DHT22;4127;47.908;10.850;2022-10-16T17:18:50;15.80;99.90
8172;DHT22;4127;47.908;10.850;2022-10-16T17:21:19;15.70;99.90
8172;DHT22;4127;47.908;10.850;2022-10-16T17:23:46;15.60;99.90
8172;DHT22;4127;47.908;10.850;2022-10-16T17:26:15;15.50;99.90
8172;DHT22;4127;47.908;10.850;2022-10-16T17:28:42;15.40;99.90
8172;DHT22;4127;47.908;10.850;2022-10-16T17:31:12;15.40;99.90
8172;DHT22;4127;47.908;10.850;2022-10-16T17:33:40;15.30;99.90
8172;DHT22;4127;47.908;10.850;2022-10-16T17:36:07;15.30;99.90
8172;DHT22;4127;47.908;10.850;2022-10-16T17:38:34;15.30;99.90
8172;DHT22;4127;47.908;10.850;2022-10-16T17:41:10;15.20;99.90
8172;DHT22;4127;47.908;10.850;2022-10-16T17:43:38;15.20;99.90
8172;DHT22;4127;47.908;10.850;2022-10-16T17:46:06;15.20;99.90
8172;DHT22;4127;47.908;10.850;2022-10-16T17:48:37;15.10;99.90
8172;DHT22;4127;47.908;10.850;2022-10-16T17:51:06;15.10;99.90
8172;DHT22;4127;47.908;10.850;2022-10-16T17:53:34;15.10;99.90
8172;DHT22;4127;47.908;10.850;2022-10-16T17:56:05;15.00;99.90
8172;DHT22;4127;47.908;10.850;2022-10-16T17:58:32;14.90;99.90
8172;DHT22;4127;47.908;10.850;2022-10-16T18:00:59;14.90;99.90
8172;DHT22;4127;47.908;10.850;2022-10-16T18:03:26;14.90;99.90
8172;DHT22;4127;47.908;10.850;2022-10-16T18:05:54;14.80;99.90
8172;DHT22;4127;47.908;10.850;2022-10-16T18:08:22;14.70;99.90
8172;DHT22;4127;47.908;10.850;2022-10-16T18:10:54;14.60;99.90
8172;DHT22;4127;47.908;10.850;2022-10-16T18:13:21;14.50;99.90
8172;DHT22;4127;47.908;10.850;2022-10-16T18:15:59;14.50;99.90
8172;DHT22;4127;47.908;10.850;2022-10-16T18:18:26;14.40;99.90
8172;DHT22;4127;47.908;10.850;2022-10-16T18:20:59;14.50;99.90
8172;DHT22;4127;47.908;10.850;2022-10-16T18:23:27;14.50;99.90
8172;DHT22;4127;47.908;10.850;2022-10-16T18:25:55;14.30;99.90
8172;DHT22;4127;47.908;10.850;2022-10-16T18:28:22;14.30;99.90
8172;DHT22;4127;47.908;10.850;2022-10-16T18:31:00;14.20;99.90
8172;DHT22;4127;47.908;10.850;2022-10-16T18:33:27;14.20;99.90
8172;DHT22;4127;47.908;10.850;2022-10-16T18:36:02;14.20;99.90
8172;DHT22;4127;47.908;10.850;2022-10-16T18:38:30;14.20;99.90
8172;DHT22;4127;47.908;10.850;2022-10-16T18:40:57;14.20;99.90
8172;DHT22;4127;47.908;10.850;2022-10-16T18:43:28;14.20;99.90
8172;DHT22;4127;47.908;10.850;2022-10-16T18:45:57;14.20;99.90
8172;DHT22;4127;47.908;10.850;2022-10-16T18:48:25;14.20;99.90
8172;DHT22;4127;47.908;10.850;2022-10-16T18:50:53;14.30;99.90
8172;DHT22;4127;47.908;10.850;2022-10-16T18:53:20;14.30;99.90
8172;DHT22;4127;47.908;10.850;2022-10-16T18:55:53;14.20;99.90
8172;DHT22;4127;47.908;10.850;2022-10-16T18:58:20;14.30;99.90
8172;DHT22;4127;47.908;10.850;2022-10-16T19:00:46;14.30;99.90
8172;DHT22;4127;47.908;10.850;2022-10-16T19:03:13;14.40;99.90
8172;DHT22;4127;47.908;10.850;2022-10-16T19:05:40;14.40;99.90
8172;DHT22;4127;47.908;10.850;2022-10-16T19:08:07;14.40;99.90
8172;DHT22;4127;47.908;10.850;2022-10-16T19:10:36;14.40;99.90
8172;DHT22;4127;47.908;10.850;2022-10-16T19:13:03;14.30;99.90
8172;DHT22;4127;47.908;10.850;2022-10-16T19:15:40;14.10;99.90
8172;DHT22;4127;47.908;10.850;2022-10-16T19:18:10;14.00;99.90
8172;DHT22;4127;47.908;10.850;2022-10-16T19:20:36;14.00;99.90
8172;DHT22;4127;47.908;10.850;2022-10-16T19:23:03;14.00;99.90
8172;DHT22;4127;47.908;10.850;2022-10-16T19:25:30;13.90;99.90
8172;DHT22;4127;47.908;10.850;2022-10-16T19:27:56;13.90;99.90
8172;DHT22;4127;47.908;10.850;2022-10-16T19:30:23;13.90;99.90
8172;DHT22;4127;47.908;10.850;2022-10-16T19:32:50;13.80;99.90
8172;DHT22;4127;47.908;10.850;2022-10-16T19:35:18;13.80;99.90
8172;DHT22;4127;47.908;10.850;2022-10-16T19:37:49;13.80;99.90
8172;DHT22;4127;47.908;10.850;2022-10-16T19:40:16;13.80;99.90
8172;DHT22;4127;47.908;10.850;2022-10-16T19:42:42;13.70;99.90
8172;DHT22;4127;47.908;10.850;2022-10-16T19:45:11;13.70;99.90
8172;DHT22;4127;47.908;10.850;2022-10-16T19:47:38;13.60;99.90
8172;DHT22;4127;47.908;10.850;2022-10-16T19:50:05;13.50;99.90
8172;DHT22;4127;47.908;10.850;2022-10-16T19:52:35;13.60;99.90
8172;DHT22;4127;47.908;10.850;2022-10-16T19:55:04;13.60;99.90
8172;DHT22;4127;47.908;10.850;2022-10-16T19:57:33;13.60;99.90
8172;DHT22;4127;47.908;10.850;2022-10-16T20:00:07;13.60;99.90
8172;DHT22;4127;47.908;10.850;2022-10-16T20:02:34;13.50;99.90
8172;DHT22;4127;47.908;10.850;2022-10-16T20:05:01;13.50;99.90
8172;DHT22;4127;47.908;10.850;2022-10-16T20:07:28;13.40;99.90
8172;DHT22;4127;47.908;10.850;2022-10-16T20:10:00;13.50;99.90
8172;DHT22;4127;47.908;10.850;2022-10-16T20:12:26;13.50;99.90
8172;DHT22;4127;47.908;10.850;2022-10-16T20:14:53;13.50;99.90
8172;DHT22;4127;47.908;10.850;2022-10-16T20:17:20;13.40;99.90
8172;DHT22;4127;47.908;10.850;2022-10-16T20:19:47;13.40;99.90
8172;DHT22;4127;47.908;10.850;2022-10-16T20:22:13;13.30;99.90